Time;durP1;ratioP1;P1;durP2;ratioP2;P2;SDS_P1;SDS_P2;PMS_P1;PMS_P2;Temp;Humidity;BMP_temperature;BMP_pressure;BME280_temperature;BME280_humidity;BME280_pressure;Samples;Min_cycle;Max_cycle;Signal;HPM_P1;HPM_P2
2023/04/30 00:02:07;;;;;;;8.67;7.30;;;;;;;;;;5040919;28;20454;-79
2023/04/30 00:04:45;;;;;;;7.40;6.80;;;;;;;;;;5041429;28;20537;-79
2023/04/30 00:07:20;;;;;;;8.03;6.87;;;;;;;;;;5043447;28;20462;-78
2023/04/30 00:09:50;;;;;;;6.20;5.70;;;;;;;;;;5032605;28;20450;-79
2023/04/30 00:12:26;;;;;;;6.90;6.30;;;;;;;;;;5039536;28;20451;-78
2023/04/30 00:14:56;;;;;;;7.10;6.50;;;;;;;;;;5054767;28;20909;-79
2023/04/30 00:17:26;;;;;;;7.80;6.90;;;;;;;;;;5039893;28;20779;-78
2023/04/30 00:20:00;;;;;;;7.77;7.07;;;;;;;;;;5040074;28;20461;-78
2023/04/30 00:22:33;;;;;;;7.10;6.50;;;;;;;;;;5040151;28;20505;-79
2023/04/30 00:25:07;;;;;;;6.30;5.80;;;;;;;;;;5039438;28;20470;-78
2023/04/30 00:27:38;;;;;;;7.43;6.73;;;;;;;;;;5038896;28;20482;-78
2023/04/30 00:30:14;;;;;;;8.13;7.43;;;;;;;;;;5039346;28;20481;-79
2023/04/30 00:32:44;;;;;;;8.50;7.07;;;;;;;;;;5040098;28;20466;-80
2023/04/30 00:35:17;;;;;;;7.80;7.10;;;;;;;;;;5039375;28;20498;-78
2023/04/30 00:37:46;;;;;;;8.37;7.50;;;;;;;;;;5038270;28;20562;-77
2023/04/30 00:40:17;;;;;;;8.80;7.40;;;;;;;;;;5037907;28;20458;-80
2023/04/30 00:42:54;;;;;;;7.70;7.00;;;;;;;;;;5038118;28;20442;-78
2023/04/30 00:45:28;;;;;;;8.40;7.60;;;;;;;;;;5039349;28;20435;-78
2023/04/30 00:48:02;;;;;;;7.93;7.13;;;;;;;;;;5038599;28;20485;-78
2023/04/30 00:50:34;;;;;;;8.57;7.87;;;;;;;;;;5038275;28;20890;-78
2023/04/30 00:53:05;;;;;;;8.93;8.20;;;;;;;;;;5042785;28;20450;-78
2023/04/30 00:55:43;;;;;;;9.20;8.30;;;;;;;;;;5048487;28;20474;-78
2023/04/30 00:58:14;;;;;;;9.63;8.73;;;;;;;;;;5050858;28;20453;-78
2023/04/30 01:00:46;;;;;;;9.20;8.30;;;;;;;;;;5050676;28;20446;-80
2023/04/30 01:03:18;;;;;;;8.63;7.90;;;;;;;;;;5050385;28;20522;-78
2023/04/30 01:05:55;;;;;;;8.33;7.60;;;;;;;;;;5048168;28;20442;-79
2023/04/30 01:08:27;;;;;;;9.60;8.60;;;;;;;;;;5046124;28;20474;-80
2023/04/30 01:10:57;;;;;;;9.70;8.80;;;;;;;;;;5047653;28;20510;-79
2023/04/30 01:13:36;;;;;;;10.60;9.03;;;;;;;;;;5049655;28;20588;-78
2023/04/30 01:16:14;;;;;;;9.57;8.73;;;;;;;;;;5039948;28;20537;-80
2023/04/30 01:18:53;;;;;;;8.77;8.07;;;;;;;;;;5041334;28;20549;-80
2023/04/30 01:21:34;;;;;;;10.07;9.07;;;;;;;;;;5047733;28;20900;-78
2023/04/30 01:24:27;;;;;;;9.37;8.47;;;;;;;;;;5049050;28;20489;-78
2023/04/30 01:27:13;;;;;;;10.10;9.20;;;;;;;;;;5047149;28;20471;-78
2023/04/30 01:30:04;;;;;;;10.80;9.70;;;;;;;;;;5043475;28;20453;-78
2023/04/30 01:32:35;;;;;;;9.50;8.70;;;;;;;;;;5044492;28;20450;-80
2023/04/30 01:35:09;;;;;;;9.97;9.00;;;;;;;;;;5043174;28;20450;-79
2023/04/30 01:37:49;;;;;;;12.47;10.07;;;;;;;;;;5044506;28;20547;-78
2023/04/30 01:40:34;;;;;;;9.87;8.80;;;;;;;;;;5043414;28;20450;-79
2023/04/30 01:46:02;;;;;;;9.57;8.67;;;;;;;;;;5038974;28;20776;-80
2023/04/30 01:48:35;;;;;;;10.23;9.23;;;;;;;;;;5039707;28;20981;-79
2023/04/30 01:51:16;;;;;;;10.43;9.43;;;;;;;;;;5036337;28;20462;-79
2023/04/30 01:53:46;;;;;;;10.37;9.37;;;;;;;;;;5039055;28;20518;-78
2023/04/30 01:56:28;;;;;;;11.20;10.20;;;;;;;;;;5036707;28;20663;-77
2023/04/30 01:58:59;;;;;;;11.80;10.20;;;;;;;;;;5038106;28;20478;-77
2023/04/30 02:01:31;;;;;;;12.30;11.07;;;;;;;;;;5038135;28;20454;-79
2023/04/30 02:04:05;;;;;;;11.33;10.33;;;;;;;;;;5037904;28;20454;-79
2023/04/30 02:06:34;;;;;;;10.80;9.80;;;;;;;;;;5037880;28;20456;-78
2023/04/30 02:11:50;;;;;;;10.90;9.90;;;;;;;;;;5034257;28;20447;-78
2023/04/30 02:14:30;;;;;;;11.30;10.23;;;;;;;;;;5036332;28;20450;-79
2023/04/30 02:17:00;;;;;;;11.30;10.20;;;;;;;;;;5037843;28;20883;-79
2023/04/30 02:19:38;;;;;;;12.00;10.87;;;;;;;;;;5038648;28;20459;-79
2023/04/30 02:22:06;;;;;;;11.80;10.70;;;;;;;;;;5038213;28;20450;-78
2023/04/30 02:24:47;;;;;;;13.37;11.97;;;;;;;;;;5040421;28;20509;-79
2023/04/30 02:27:35;;;;;;;12.23;11.10;;;;;;;;;;5040391;28;20434;-78
2023/04/30 02:30:25;;;;;;;12.43;11.30;;;;;;;;;;5039075;28;20545;-79
2023/04/30 02:33:11;;;;;;;13.87;11.17;;;;;;;;;;5036201;28;20891;-78
2023/04/30 02:35:46;;;;;;;13.27;11.90;;;;;;;;;;5034497;28;20941;-80
2023/04/30 02:38:27;;;;;;;12.57;11.37;;;;;;;;;;5034495;28;20478;-79
2023/04/30 02:41:06;;;;;;;12.00;10.80;;;;;;;;;;5033981;28;20454;-80
2023/04/30 02:43:45;;;;;;;13.07;11.77;;;;;;;;;;5033950;28;20853;-79
2023/04/30 02:46:17;;;;;;;13.00;11.70;;;;;;;;;;5036444;28;20458;-79
2023/04/30 02:48:54;;;;;;;12.33;11.13;;;;;;;;;;5039029;28;20486;-80
2023/04/30 02:51:39;;;;;;;12.23;10.90;;;;;;;;;;5039948;28;20446;-79
2023/04/30 02:57:35;;;;;;;13.07;11.63;;;;;;;;;;5076654;28;20547;-78
2023/04/30 03:00:06;;;;;;;12.70;11.50;;;;;;;;;;5076340;28;20475;-78
2023/04/30 03:02:40;;;;;;;13.20;11.67;;;;;;;;;;5076765;28;20449;-78
2023/04/30 03:05:20;;;;;;;13.00;11.80;;;;;;;;;;5076915;28;20513;-77
2023/04/30 03:07:57;;;;;;;13.33;12.03;;;;;;;;;;5075086;28;20496;-78
2023/04/30 03:10:40;;;;;;;13.63;11.60;;;;;;;;;;5072761;28;20457;-78
2023/04/30 03:13:40;;;;;;;12.67;11.37;;;;;;;;;;5071514;28;20459;-78
2023/04/30 03:28:23;;;;;;;12.70;11.50;;;;;;;;;;5066668;28;20953;-79
2023/04/30 03:31:13;;;;;;;12.60;11.30;;;;;;;;;;5071634;28;20452;-79
2023/04/30 03:36:56;;;;;;;16.40;11.43;;;;;;;;;;5062685;28;20476;-79
2023/04/30 03:39:55;;;;;;;13.97;12.57;;;;;;;;;;5071110;28;20441;-79
2023/04/30 03:42:37;;;;;;;13.70;12.40;;;;;;;;;;5066672;28;20460;-79
2023/04/30 03:45:24;;;;;;;15.60;13.00;;;;;;;;;;5072188;28;20448;-78
2023/04/30 03:48:11;;;;;;;13.53;12.13;;;;;;;;;;5072607;28;20475;-79
2023/04/30 03:50:52;;;;;;;14.53;13.03;;;;;;;;;;5072307;28;20970;-77
2023/04/30 03:53:43;;;;;;;14.20;12.90;;;;;;;;;;5072885;28;20445;-78
2023/04/30 03:59:33;;;;;;;12.90;11.60;;;;;;;;;;5016067;28;20466;-79
2023/04/30 04:05:04;;;;;;;15.17;13.63;;;;;;;;;;5057932;28;20451;-78
2023/04/30 04:19:09;;;;;;;14.40;13.00;;;;;;;;;;5052546;28;20545;-78
2023/04/30 04:21:43;;;;;;;16.00;14.40;;;;;;;;;;5056440;28;20452;-78
2023/04/30 04:24:29;;;;;;;13.50;12.20;;;;;;;;;;5060094;28;20503;-78
2023/04/30 04:27:34;;;;;;;14.13;12.87;;;;;;;;;;5055928;28;20441;-78
2023/04/30 04:30:27;;;;;;;14.40;12.90;;;;;;;;;;5043885;28;20453;-78
2023/04/30 04:33:15;;;;;;;12.87;11.63;;;;;;;;;;5045503;28;20482;-79
2023/04/30 04:36:10;;;;;;;14.10;12.70;;;;;;;;;;5051070;28;20564;-77
2023/04/30 04:39:15;;;;;;;;;;;;;;;;;;;;;
2023/04/30 04:55:20;;;;;;;12.57;11.47;;;;;;;;;;5938186;22;7198116;-78
2023/04/30 04:57:49;;;;;;;14.20;12.90;;;;;;;;;;6194109;23;20262;-79
2023/04/30 05:03:19;;;;;;;14.20;12.80;;;;;;;;;;6163752;23;20534;-80
2023/04/30 05:05:55;;;;;;;15.13;13.53;;;;;;;;;;6169013;23;20429;-79
2023/04/30 05:08:39;;;;;;;13.87;12.13;;;;;;;;;;6168806;23;20445;-79
2023/04/30 05:11:10;;;;;;;15.27;13.63;;;;;;;;;;6169520;23;20494;-80
2023/04/30 05:16:19;;;;;;;14.17;12.87;;;;;;;;;;6167582;23;20490;-80
2023/04/30 05:18:52;;;;;;;13.97;12.67;;;;;;;;;;6170086;23;20455;-79
2023/04/30 05:21:35;;;;;;;13.67;12.33;;;;;;;;;;6172486;23;20706;-78
2023/04/30 05:24:15;;;;;;;16.87;13.37;;;;;;;;;;6170191;23;20463;-78
2023/04/30 05:26:58;;;;;;;14.47;12.97;;;;;;;;;;6173706;23;20415;-78
2023/04/30 05:29:36;;;;;;;13.17;11.97;;;;;;;;;;6174888;23;20414;-79
2023/04/30 05:32:10;;;;;;;15.53;13.83;;;;;;;;;;6177311;23;20372;-80
2023/04/30 05:34:41;;;;;;;14.23;12.73;;;;;;;;;;6173888;23;20433;-77
2023/04/30 05:37:13;;;;;;;13.80;12.50;;;;;;;;;;6171977;23;20414;-78
2023/04/30 05:39:47;;;;;;;14.43;12.93;;;;;;;;;;6173163;23;20789;-78
2023/04/30 05:42:19;;;;;;;14.40;12.90;;;;;;;;;;6172867;23;20392;-78
2023/04/30 05:44:52;;;;;;;18.43;13.33;;;;;;;;;;6170562;23;20439;-81
2023/04/30 05:47:28;;;;;;;14.20;12.90;;;;;;;;;;6167623;23;20438;-78
2023/04/30 05:49:56;;;;;;;14.37;13.10;;;;;;;;;;6166990;23;20419;-78
2023/04/30 05:52:25;;;;;;;14.20;12.80;;;;;;;;;;6167325;23;20423;-81
2023/04/30 05:54:53;;;;;;;16.93;13.70;;;;;;;;;;6165575;23;20416;-79
2023/04/30 05:57:37;;;;;;;14.37;13.07;;;;;;;;;;6161799;23;20499;-79
2023/04/30 06:03:10;;;;;;;13.77;12.40;;;;;;;;;;6159396;23;20443;-78
2023/04/30 06:05:53;;;;;;;14.00;12.70;;;;;;;;;;6160481;23;20418;-78
2023/04/30 06:08:48;;;;;;;14.00;12.60;;;;;;;;;;6158886;23;20451;-80
2023/04/30 06:11:28;;;;;;;13.80;12.60;;;;;;;;;;6160379;23;20717;-78
2023/04/30 06:14:04;;;;;;;13.23;12.00;;;;;;;;;;6160511;23;20404;-79
2023/04/30 06:16:48;;;;;;;13.80;12.40;;;;;;;;;;6161224;23;20765;-78
2023/04/30 06:19:24;;;;;;;12.47;11.37;;;;;;;;;;6156807;23;20487;-79
2023/04/30 06:21:56;;;;;;;11.63;10.63;;;;;;;;;;6161954;23;20414;-79
2023/04/30 06:24:47;;;;;;;13.63;12.33;;;;;;;;;;6162846;23;20436;-79
2023/04/30 06:27:22;;;;;;;11.07;10.10;;;;;;;;;;6161745;23;20416;-79
2023/04/30 06:30:09;;;;;;;12.90;11.60;;;;;;;;;;6162351;23;20447;-78
2023/04/30 06:32:51;;;;;;;15.80;11.87;;;;;;;;;;6160802;23;20424;-79
2023/04/30 06:35:31;;;;;;;12.73;11.53;;;;;;;;;;6163276;23;20424;-79
2023/04/30 06:38:01;;;;;;;13.23;11.87;;;;;;;;;;6162540;23;20916;-80
2023/04/30 06:40:35;;;;;;;11.77;10.70;;;;;;;;;;6161264;23;20420;-79
2023/04/30 06:43:23;;;;;;;12.40;11.17;;;;;;;;;;6161178;23;20419;-79
2023/04/30 06:48:51;;;;;;;12.53;11.43;;;;;;;;;;6133636;23;20412;-79
2023/04/30 06:51:23;;;;;;;12.07;10.97;;;;;;;;;;6158251;23;20407;-78
2023/04/30 06:53:55;;;;;;;12.13;11.13;;;;;;;;;;6156375;23;20416;-80
2023/04/30 06:56:27;;;;;;;12.50;11.20;;;;;;;;;;6156647;23;20443;-77
2023/04/30 06:58:57;;;;;;;13.03;11.73;;;;;;;;;;6156794;23;20431;-79
2023/04/30 07:01:25;;;;;;;11.67;10.60;;;;;;;;;;6156085;23;20408;-78
2023/04/30 07:03:53;;;;;;;11.63;10.63;;;;;;;;;;6156058;23;20443;-79
2023/04/30 07:06:35;;;;;;;10.67;9.67;;;;;;;;;;6155728;23;20416;-78
2023/04/30 07:09:08;;;;;;;11.47;10.47;;;;;;;;;;6155838;23;20436;-77
2023/04/30 07:11:36;;;;;;;11.17;10.17;;;;;;;;;;6155477;23;20493;-79
2023/04/30 07:14:05;;;;;;;12.13;11.13;;;;;;;;;;6155892;23;20453;-77
2023/04/30 07:16:36;;;;;;;10.33;9.40;;;;;;;;;;6155644;23;20482;-77
2023/04/30 07:19:05;;;;;;;11.77;10.57;;;;;;;;;;6155541;23;20432;-77
2023/04/30 07:21:39;;;;;;;11.30;10.30;;;;;;;;;;6156715;23;20419;-78
2023/04/30 07:24:08;;;;;;;30.67;27.60;;;;;;;;;;6157594;23;20465;-77
2023/04/30 07:26:40;;;;;;;12.00;11.00;;;;;;;;;;6157030;23;20415;-77
2023/04/30 07:29:10;;;;;;;12.17;11.07;;;;;;;;;;6155698;23;20519;-79
2023/04/30 07:31:50;;;;;;;11.20;10.23;;;;;;;;;;6155824;23;20491;-78
2023/04/30 07:34:18;;;;;;;10.83;10.03;;;;;;;;;;6156187;23;20467;-77
2023/04/30 07:36:54;;;;;;;11.63;10.63;;;;;;;;;;6156761;23;20423;-76
2023/04/30 07:39:28;;;;;;;10.60;9.67;;;;;;;;;;6158866;23;20447;-79
2023/04/30 07:42:02;;;;;;;11.47;9.50;;;;;;;;;;6157524;23;20419;-79
2023/04/30 07:44:30;;;;;;;14.80;13.40;;;;;;;;;;6155953;23;20507;-79
2023/04/30 07:47:00;;;;;;;11.63;10.50;;;;;;;;;;6155244;23;20475;-77
2023/04/30 07:49:29;;;;;;;10.67;9.77;;;;;;;;;;6155990;23;20484;-77
2023/04/30 07:52:01;;;;;;;9.50;8.70;;;;;;;;;;6156425;23;20412;-78
2023/04/30 07:54:29;;;;;;;10.23;9.43;;;;;;;;;;6157217;23;20769;-79
2023/04/30 07:56:56;;;;;;;9.80;8.90;;;;;;;;;;6158484;23;20404;-78
2023/04/30 07:59:24;;;;;;;8.70;8.10;;;;;;;;;;6157993;23;20400;-78
2023/04/30 08:01:55;;;;;;;9.43;8.53;;;;;;;;;;6157926;23;20427;-78
2023/04/30 08:04:23;;;;;;;9.30;8.50;;;;;;;;;;6158129;23;20774;-78
2023/04/30 08:06:51;;;;;;;9.40;8.50;;;;;;;;;;6157862;23;20431;-78
2023/04/30 08:09:21;;;;;;;9.60;8.73;;;;;;;;;;6157526;23;20420;-79
2023/04/30 08:11:52;;;;;;;10.20;9.20;;;;;;;;;;6158431;23;20400;-78
2023/04/30 08:14:20;;;;;;;9.60;8.80;;;;;;;;;;6156827;23;20448;-79
2023/04/30 08:16:50;;;;;;;7.97;7.37;;;;;;;;;;6155277;23;20435;-78
2023/04/30 08:19:18;;;;;;;7.90;7.30;;;;;;;;;;6154912;23;20514;-78
2023/04/30 08:21:52;;;;;;;8.90;8.13;;;;;;;;;;6155506;23;20735;-77
2023/04/30 08:24:22;;;;;;;7.90;7.30;;;;;;;;;;6154753;23;21047;-78
2023/04/30 08:26:55;;;;;;;8.40;7.70;;;;;;;;;;6154997;23;20432;-78
2023/04/30 08:29:23;;;;;;;8.17;7.37;;;;;;;;;;6156084;23;20432;-77
2023/04/30 08:32:04;;;;;;;7.57;7.07;;;;;;;;;;6156463;23;20447;-77
2023/04/30 08:34:33;;;;;;;8.20;7.50;;;;;;;;;;6155707;23;20459;-79
2023/04/30 08:37:02;;;;;;;11.30;10.40;;;;;;;;;;6155686;23;20422;-79
2023/04/30 08:39:36;;;;;;;7.00;6.50;;;;;;;;;;6156709;23;20969;-78
2023/04/30 08:44:50;;;;;;;6.97;6.47;;;;;;;;;;6154410;23;20443;-76
2023/04/30 08:47:19;;;;;;;6.23;5.73;;;;;;;;;;6154419;23;20729;-77
2023/04/30 08:49:53;;;;;;;5.27;4.87;;;;;;;;;;6154329;23;20416;-78
2023/04/30 08:52:34;;;;;;;5.73;5.27;;;;;;;;;;6154607;23;20867;-78
2023/04/30 08:55:06;;;;;;;5.80;5.30;;;;;;;;;;6153842;23;20420;-77
2023/04/30 08:57:38;;;;;;;5.33;4.93;;;;;;;;;;6154733;23;20458;-78
2023/04/30 09:00:10;;;;;;;4.40;4.10;;;;;;;;;;6157604;23;20435;-77
2023/04/30 09:02:45;;;;;;;4.53;4.17;;;;;;;;;;6156341;23;20500;-77
2023/04/30 09:05:14;;;;;;;4.63;4.30;;;;;;;;;;6155004;23;20443;-77
2023/04/30 09:07:46;;;;;;;4.10;3.80;;;;;;;;;;6154931;23;20415;-77
2023/04/30 09:10:19;;;;;;;4.00;3.70;;;;;;;;;;6154806;23;20418;-75
2023/04/30 09:13:15;;;;;;;4.60;4.30;;;;;;;;;;6154414;23;20514;-76
2023/04/30 09:15:47;;;;;;;5.30;4.90;;;;;;;;;;6156619;23;20483;-77
2023/04/30 09:18:20;;;;;;;4.20;3.90;;;;;;;;;;6157186;23;20432;-77
2023/04/30 09:21:10;;;;;;;4.30;4.00;;;;;;;;;;6156979;23;20500;-78
2023/04/30 09:23:57;;;;;;;4.67;4.37;;;;;;;;;;6158855;23;20419;-78
2023/04/30 09:26:33;;;;;;;5.80;5.40;;;;;;;;;;6157871;23;20957;-78
2023/04/30 09:29:17;;;;;;;4.80;4.30;;;;;;;;;;6157497;23;20411;-78
2023/04/30 09:31:49;;;;;;;4.07;3.77;;;;;;;;;;6159097;23;20408;-77
2023/04/30 09:34:19;;;;;;;3.57;3.27;;;;;;;;;;6158294;23;20462;-77
2023/04/30 09:36:55;;;;;;;4.43;4.03;;;;;;;;;;6158706;23;20420;-76
2023/04/30 09:39:38;;;;;;;3.70;3.40;;;;;;;;;;6157165;23;20427;-77
2023/04/30 09:42:17;;;;;;;3.90;3.70;;;;;;;;;;6157197;23;20486;-78
2023/04/30 09:44:51;;;;;;;4.63;4.03;;;;;;;;;;6157901;23;20443;-79
2023/04/30 09:47:24;;;;;;;3.70;3.40;;;;;;;;;;6157470;23;20415;-78
2023/04/30 09:49:56;;;;;;;3.63;3.43;;;;;;;;;;6158746;23;20419;-78
2023/04/30 09:52:24;;;;;;;3.37;3.17;;;;;;;;;;6157478;23;20441;-77
2023/04/30 09:54:52;;;;;;;3.57;3.37;;;;;;;;;;6156138;23;20941;-77
2023/04/30 09:57:24;;;;;;;3.70;3.40;;;;;;;;;;6155841;23;20446;-76
2023/04/30 09:59:54;;;;;;;3.57;3.37;;;;;;;;;;6159021;23;20416;-77
2023/04/30 10:02:26;;;;;;;3.40;3.20;;;;;;;;;;6158006;23;20874;-78
2023/04/30 10:07:45;;;;;;;3.47;2.80;;;;;;;;;;6036961;23;20442;-77
2023/04/30 10:14:00;;;;;;;3.60;3.30;;;;;;;;;;5955890;24;20410;-77
2023/04/30 10:34:40;;;;;;;3.40;3.10;;;;;;;;;;6161212;23;20858;-78
2023/04/30 10:37:41;;;;;;;3.60;3.40;;;;;;;;;;6159175;23;20394;-78
2023/04/30 10:40:44;;;;;;;3.60;3.30;;;;;;;;;;6161089;23;20449;-78
2023/04/30 10:46:46;;;;;;;5.80;5.30;;;;;;;;;;6051936;23;20740;-77
2023/04/30 10:49:30;;;;;;;4.03;3.73;;;;;;;;;;6159164;23;20503;-78
2023/04/30 10:52:06;;;;;;;6.27;4.53;;;;;;;;;;6157152;23;20416;-79
2023/04/30 10:54:53;;;;;;;4.70;4.37;;;;;;;;;;6158211;23;20419;-79
2023/04/30 10:57:28;;;;;;;4.90;4.60;;;;;;;;;;6157072;23;20432;-78
2023/04/30 11:00:18;;;;;;;4.70;4.40;;;;;;;;;;6159329;23;20416;-78
2023/04/30 11:02:48;;;;;;;4.97;4.63;;;;;;;;;;6157655;23;20443;-78
2023/04/30 11:05:17;;;;;;;4.50;4.20;;;;;;;;;;6157767;23;20442;-75
2023/04/30 11:07:52;;;;;;;5.37;4.87;;;;;;;;;;6157076;23;20422;-77
2023/04/30 11:10:35;;;;;;;5.17;4.87;;;;;;;;;;6161852;23;20420;-76
2023/04/30 11:13:06;;;;;;;3.87;3.67;;;;;;;;;;6161991;23;20500;-78
2023/04/30 11:15:37;;;;;;;4.90;4.60;;;;;;;;;;6166339;23;20408;-78
2023/04/30 11:18:11;;;;;;;4.63;4.23;;;;;;;;;;6164850;23;20499;-77
2023/04/30 11:20:42;;;;;;;6.30;5.27;;;;;;;;;;6166889;23;20442;-77
2023/04/30 11:23:21;;;;;;;4.30;4.10;;;;;;;;;;6163341;23;20416;-77
2023/04/30 11:25:50;;;;;;;4.43;4.13;;;;;;;;;;6165150;23;20467;-77
2023/04/30 11:28:20;;;;;;;4.77;4.37;;;;;;;;;;6157895;23;20527;-76
2023/04/30 11:30:57;;;;;;;4.20;3.90;;;;;;;;;;6160334;23;20424;-78
2023/04/30 11:33:29;;;;;;;4.40;4.10;;;;;;;;;;6161319;23;20486;-77
2023/04/30 11:36:07;;;;;;;4.63;4.30;;;;;;;;;;6160965;23;20408;-80
2023/04/30 11:38:40;;;;;;;4.90;4.60;;;;;;;;;;6158944;23;20953;-80
2023/04/30 11:41:20;;;;;;;4.60;4.30;;;;;;;;;;6163741;23;20456;-79
2023/04/30 11:43:57;;;;;;;4.43;4.13;;;;;;;;;;6159806;23;20408;-78
2023/04/30 11:46:35;;;;;;;4.50;4.10;;;;;;;;;;6158421;23;21049;-79
2023/04/30 11:49:08;;;;;;;4.67;4.37;;;;;;;;;;6157135;23;20575;-77
2023/04/30 11:51:40;;;;;;;4.47;4.17;;;;;;;;;;6158533;23;20477;-78
2023/04/30 11:54:36;;;;;;;4.90;4.43;;;;;;;;;;6157163;23;20495;-78
2023/04/30 11:57:20;;;;;;;4.73;4.43;;;;;;;;;;6157061;23;20914;-80
2023/04/30 11:59:51;;;;;;;4.07;3.80;;;;;;;;;;6159422;23;20415;-78
2023/04/30 12:02:20;;;;;;;4.47;4.17;;;;;;;;;;6162814;23;20419;-79
2023/04/30 12:04:58;;;;;;;4.23;3.93;;;;;;;;;;6161035;23;20447;-80
2023/04/30 12:07:30;;;;;;;4.70;4.40;;;;;;;;;;6158359;23;20486;-79
2023/04/30 12:10:02;;;;;;;4.47;4.17;;;;;;;;;;6156414;23;20477;-78
2023/04/30 12:12:32;;;;;;;5.00;4.60;;;;;;;;;;6157133;23;20408;-78
2023/04/30 12:15:14;;;;;;;4.90;4.60;;;;;;;;;;6157115;23;20416;-78
2023/04/30 12:17:45;;;;;;;5.50;5.10;;;;;;;;;;6157575;23;20423;-78
2023/04/30 12:20:20;;;;;;;4.17;3.97;;;;;;;;;;6157213;23;20408;-77
2023/04/30 12:22:50;;;;;;;3.90;3.70;;;;;;;;;;6155228;23;20411;-78
2023/04/30 12:25:19;;;;;;;4.43;4.03;;;;;;;;;;6155868;23;20446;-78
2023/04/30 12:27:53;;;;;;;3.90;3.60;;;;;;;;;;6158792;23;20431;-76
2023/04/30 12:30:25;;;;;;;3.50;3.30;;;;;;;;;;6156458;23;20849;-78
2023/04/30 12:32:54;;;;;;;4.53;4.23;;;;;;;;;;6153269;23;20482;-78
2023/04/30 12:35:28;;;;;;;3.93;3.63;;;;;;;;;;6154682;23;20420;-78
2023/04/30 12:38:06;;;;;;;4.50;4.10;;;;;;;;;;6154973;23;20419;-78
2023/04/30 12:40:44;;;;;;;4.33;3.93;;;;;;;;;;6155611;23;20411;-78
2023/04/30 12:43:18;;;;;;;4.13;3.87;;;;;;;;;;6158076;23;20419;-77
2023/04/30 12:45:52;;;;;;;3.90;3.70;;;;;;;;;;6158354;23;20447;-78
2023/04/30 12:48:24;;;;;;;4.17;3.90;;;;;;;;;;6157946;23;20462;-76
2023/04/30 12:50:55;;;;;;;7.67;6.97;;;;;;;;;;6156725;23;20412;-77
2023/04/30 12:53:23;;;;;;;7.97;5.30;;;;;;;;;;6159277;23;20426;-77
2023/04/30 12:56:14;;;;;;;6.50;5.90;;;;;;;;;;6160687;23;20424;-78
2023/04/30 12:58:52;;;;;;;4.67;4.17;;;;;;;;;;6159450;23;20467;-76
2023/04/30 13:01:20;;;;;;;4.50;4.20;;;;;;;;;;6157608;23;20889;-76
2023/04/30 13:03:51;;;;;;;4.43;4.13;;;;;;;;;;6157004;23;20466;-75
2023/04/30 13:06:19;;;;;;;3.97;3.77;;;;;;;;;;6156437;23;20498;-78
2023/04/30 13:08:51;;;;;;;4.60;4.30;;;;;;;;;;6156636;23;20420;-76
2023/04/30 13:11:20;;;;;;;3.90;3.60;;;;;;;;;;6157482;23;20928;-79
2023/04/30 13:13:55;;;;;;;4.20;3.90;;;;;;;;;;6157561;23;20496;-77
2023/04/30 13:16:26;;;;;;;4.70;4.30;;;;;;;;;;6165646;23;20431;-79
2023/04/30 13:18:53;;;;;;;4.60;4.30;;;;;;;;;;6169674;23;20551;-78
2023/04/30 13:21:29;;;;;;;3.80;3.60;;;;;;;;;;6165227;23;20408;-78
2023/04/30 13:23:56;;;;;;;4.37;4.10;;;;;;;;;;6165339;23;20392;-78
2023/04/30 13:26:25;;;;;;;4.20;3.90;;;;;;;;;;6166839;23;20460;-78
2023/04/30 13:29:03;;;;;;;4.00;3.73;;;;;;;;;;6167216;23;20837;-79
2023/04/30 13:31:32;;;;;;;4.00;3.70;;;;;;;;;;6166428;23;20412;-77
2023/04/30 13:34:00;;;;;;;3.70;3.50;;;;;;;;;;6167359;23;20415;-78
2023/04/30 13:36:31;;;;;;;4.33;4.03;;;;;;;;;;6168565;23;20412;-78
2023/04/30 13:38:59;;;;;;;4.20;3.90;;;;;;;;;;6172688;23;20426;-78
2023/04/30 13:41:32;;;;;;;3.83;3.53;;;;;;;;;;6175331;23;20422;-78
2023/04/30 13:44:00;;;;;;;3.90;3.60;;;;;;;;;;6171938;23;20383;-76
2023/04/30 13:46:27;;;;;;;4.47;4.17;;;;;;;;;;6171947;23;20503;-77
2023/04/30 13:48:59;;;;;;;4.23;3.93;;;;;;;;;;6172269;23;20444;-77
2023/04/30 13:51:30;;;;;;;4.60;4.07;;;;;;;;;;6173527;23;20428;-77
2023/04/30 13:53:58;;;;;;;7.00;6.40;;;;;;;;;;6172967;23;20957;-77
2023/04/30 13:56:25;;;;;;;6.10;5.60;;;;;;;;;;6172596;23;20435;-77
2023/04/30 13:58:57;;;;;;;4.67;4.37;;;;;;;;;;6173413;23;20432;-76
2023/04/30 14:01:26;;;;;;;3.83;3.63;;;;;;;;;;6171498;23;20416;-78
2023/04/30 14:04:07;;;;;;;4.10;3.77;;;;;;;;;;6171944;23;20408;-78
2023/04/30 14:06:35;;;;;;;4.07;3.73;;;;;;;;;;6172041;23;20439;-78
2023/04/30 14:09:12;;;;;;;4.23;3.83;;;;;;;;;;6172698;23;20436;-77
2023/04/30 14:11:42;;;;;;;3.80;3.60;;;;;;;;;;6171959;23;20414;-78
2023/04/30 14:14:13;;;;;;;3.80;3.60;;;;;;;;;;6174059;23;20484;-78
2023/04/30 14:16:41;;;;;;;3.97;3.67;;;;;;;;;;6173508;23;20412;-78
2023/04/30 14:19:16;;;;;;;4.13;3.87;;;;;;;;;;6174637;23;20438;-79
2023/04/30 14:21:49;;;;;;;4.27;3.90;;;;;;;;;;6176226;23;20411;-76
2023/04/30 14:24:18;;;;;;;3.73;3.53;;;;;;;;;;6176483;23;20418;-77
2023/04/30 14:26:58;;;;;;;4.40;4.00;;;;;;;;;;6176550;23;20424;-78
2023/04/30 14:29:32;;;;;;;4.97;4.50;;;;;;;;;;6172845;23;20491;-76
2023/04/30 14:32:04;;;;;;;5.77;5.37;;;;;;;;;;6173986;23;20774;-78
2023/04/30 14:34:46;;;;;;;4.20;4.00;;;;;;;;;;6174186;23;20763;-78
2023/04/30 14:37:16;;;;;;;4.07;3.83;;;;;;;;;;6174385;23;20787;-77
2023/04/30 14:40:12;;;;;;;4.23;3.83;;;;;;;;;;6172147;23;20384;-77
2023/04/30 14:42:49;;;;;;;3.97;3.77;;;;;;;;;;6171140;23;20419;-79
2023/04/30 14:45:17;;;;;;;4.30;3.80;;;;;;;;;;6171161;23;20491;-78
2023/04/30 14:47:48;;;;;;;4.10;3.80;;;;;;;;;;6169683;23;20480;-77
2023/04/30 14:50:18;;;;;;;4.20;3.90;;;;;;;;;;6167132;23;20404;-77
2023/04/30 14:52:48;;;;;;;4.60;4.00;;;;;;;;;;6167882;23;20400;-78
2023/04/30 14:55:29;;;;;;;4.23;3.93;;;;;;;;;;6168200;23;20420;-77
2023/04/30 14:58:00;;;;;;;3.50;3.30;;;;;;;;;;6165178;23;20436;-78
2023/04/30 15:00:30;;;;;;;3.97;3.67;;;;;;;;;;6167358;23;20964;-77
2023/04/30 15:02:59;;;;;;;4.33;4.00;;;;;;;;;;6163127;23;20415;-79
2023/04/30 15:05:30;;;;;;;3.57;3.37;;;;;;;;;;6159981;23;20443;-78
2023/04/30 15:07:58;;;;;;;3.73;3.40;;;;;;;;;;6157874;23;20930;-79
2023/04/30 15:10:37;;;;;;;3.73;3.43;;;;;;;;;;6160098;23;20412;-78
2023/04/30 15:13:07;;;;;;;4.63;4.23;;;;;;;;;;6163819;23;20377;-77
2023/04/30 15:15:38;;;;;;;4.13;3.83;;;;;;;;;;6161992;23;20510;-76
2023/04/30 15:18:07;;;;;;;3.63;3.27;;;;;;;;;;6161677;23;20432;-77
2023/04/30 15:20:46;;;;;;;3.43;3.23;;;;;;;;;;6165419;23;20412;-78
2023/04/30 15:23:16;;;;;;;4.03;3.73;;;;;;;;;;6165185;23;20412;-77
2023/04/30 15:25:47;;;;;;;4.07;3.70;;;;;;;;;;6165376;23;20452;-79
2023/04/30 15:28:22;;;;;;;3.50;3.30;;;;;;;;;;6165082;23;20436;-76
2023/04/30 15:30:50;;;;;;;3.80;3.60;;;;;;;;;;6169924;23;20416;-78
2023/04/30 15:33:20;;;;;;;4.50;4.10;;;;;;;;;;6168781;23;20420;-76
2023/04/30 15:35:49;;;;;;;4.03;3.73;;;;;;;;;;6166785;23;20904;-77
2023/04/30 15:38:17;;;;;;;4.13;3.73;;;;;;;;;;6165733;23;20467;-77
2023/04/30 15:40:46;;;;;;;4.57;4.23;;;;;;;;;;6163896;23;20416;-77
2023/04/30 15:43:15;;;;;;;4.07;3.77;;;;;;;;;;6161623;23;20443;-77
2023/04/30 15:45:49;;;;;;;4.00;3.80;;;;;;;;;;6162500;23;20460;-76
2023/04/30 15:48:26;;;;;;;4.37;4.07;;;;;;;;;;6165945;23;20432;-78
2023/04/30 15:50:58;;;;;;;5.40;4.30;;;;;;;;;;6165249;23;20827;-77
2023/04/30 15:53:25;;;;;;;4.23;3.93;;;;;;;;;;6165444;23;20393;-76
2023/04/30 15:55:56;;;;;;;3.70;3.50;;;;;;;;;;6168635;23;20377;-76
2023/04/30 15:58:43;;;;;;;4.10;3.80;;;;;;;;;;6166642;23;20725;-77
2023/04/30 16:01:27;;;;;;;4.00;3.70;;;;;;;;;;6167579;23;20464;-77
2023/04/30 16:03:57;;;;;;;4.47;4.10;;;;;;;;;;6164441;23;20404;-78
2023/04/30 16:06:31;;;;;;;4.63;4.23;;;;;;;;;;6167680;23;20431;-77
2023/04/30 16:09:00;;;;;;;3.87;3.67;;;;;;;;;;6166489;23;20424;-78
2023/04/30 16:11:38;;;;;;;4.27;4.00;;;;;;;;;;6166653;23;20814;-77
2023/04/30 16:14:14;;;;;;;4.23;3.97;;;;;;;;;;6167984;23;20392;-78
2023/04/30 16:16:42;;;;;;;4.27;3.90;;;;;;;;;;6167427;23;21004;-78
2023/04/30 16:19:14;;;;;;;4.67;4.27;;;;;;;;;;6167206;23;20436;-78
2023/04/30 16:21:43;;;;;;;4.40;3.83;;;;;;;;;;6171742;23;20408;-77
2023/04/30 16:24:19;;;;;;;4.10;3.83;;;;;;;;;;6177544;23;20432;-78
2023/04/30 16:26:46;;;;;;;4.10;3.90;;;;;;;;;;6172812;23;20463;-77
2023/04/30 16:29:14;;;;;;;3.93;3.63;;;;;;;;;;6174368;23;20459;-77
2023/04/30 16:31:42;;;;;;;4.97;4.27;;;;;;;;;;6175033;23;20479;-78
2023/04/30 16:34:11;;;;;;;4.93;4.63;;;;;;;;;;6173899;23;20424;-77
2023/04/30 16:36:38;;;;;;;4.57;4.20;;;;;;;;;;6176838;23;20439;-76
2023/04/30 16:39:09;;;;;;;5.03;4.60;;;;;;;;;;6176260;23;20777;-77
2023/04/30 16:41:37;;;;;;;4.50;4.20;;;;;;;;;;6177513;23;20428;-77
2023/04/30 16:44:10;;;;;;;4.13;3.93;;;;;;;;;;6177883;23;20491;-77
2023/04/30 16:46:38;;;;;;;4.50;4.10;;;;;;;;;;6177433;23;20435;-76
2023/04/30 16:49:07;;;;;;;4.43;4.03;;;;;;;;;;6176607;23;20461;-77
2023/04/30 16:51:35;;;;;;;4.10;3.80;;;;;;;;;;6172560;23;20502;-77
2023/04/30 16:54:06;;;;;;;4.60;4.30;;;;;;;;;;6161757;23;20495;-77
2023/04/30 16:56:37;;;;;;;4.40;4.10;;;;;;;;;;6164791;23;20395;-77
2023/04/30 16:59:07;;;;;;;4.73;4.30;;;;;;;;;;6181735;23;20499;-77